sensor_id;sensor_type;location;lat;lon;timestamp;temperature;humidity
86305;DHT22;76964;49.316;7.118;2024-03-23T00:55:03;18.60;75.90
86305;DHT22;76964;49.316;7.118;2024-03-23T00:57:29;18.60;76.20
86305;DHT22;76964;49.316;7.118;2024-03-23T00:59:56;18.60;76.00
86305;DHT22;76964;49.316;7.118;2024-03-23T01:02:22;18.60;75.90
86305;DHT22;76964;49.316;7.118;2024-03-23T01:04:49;18.60;75.90
86305;DHT22;76964;49.316;7.118;2024-03-23T01:07:15;18.60;76.00
86305;DHT22;76964;49.316;7.118;2024-03-23T01:09:42;18.60;76.30
86305;DHT22;76964;49.316;7.118;2024-03-23T01:12:10;18.60;76.20
86305;DHT22;76964;49.316;7.118;2024-03-23T01:14:37;18.60;76.00
86305;DHT22;76964;49.316;7.118;2024-03-23T01:17:03;18.60;75.90
86305;DHT22;76964;49.316;7.118;2024-03-23T01:19:30;18.60;76.70
86305;DHT22;76964;49.316;7.118;2024-03-23T01:21:56;18.60;76.30
86305;DHT22;76964;49.316;7.118;2024-03-23T01:24:23;18.60;76.30
86305;DHT22;76964;49.316;7.118;2024-03-23T01:26:49;18.70;76.20
86305;DHT22;76964;49.316;7.118;2024-03-23T01:29:18;18.80;76.60
86305;DHT22;76964;49.316;7.118;2024-03-23T01:31:44;18.90;75.70
86305;DHT22;76964;49.316;7.118;2024-03-23T01:34:11;18.90;75.40
86305;DHT22;76964;49.316;7.118;2024-03-23T01:36:38;18.90;75.60
86305;DHT22;76964;49.316;7.118;2024-03-23T01:39:05;18.80;75.60
86305;DHT22;76964;49.316;7.118;2024-03-23T01:41:35;18.90;75.60
86305;DHT22;76964;49.316;7.118;2024-03-23T01:44:05;18.80;75.50
86305;DHT22;76964;49.316;7.118;2024-03-23T01:46:33;18.80;75.50
86305;DHT22;76964;49.316;7.118;2024-03-23T01:49:00;18.70;75.50
86305;DHT22;76964;49.316;7.118;2024-03-23T01:51:27;18.70;76.00
86305;DHT22;76964;49.316;7.118;2024-03-23T01:53:56;18.70;75.90
86305;DHT22;76964;49.316;7.118;2024-03-23T01:56:22;18.70;75.80
86305;DHT22;76964;49.316;7.118;2024-03-23T01:58:49;18.70;75.80
86305;DHT22;76964;49.316;7.118;2024-03-23T02:01:16;18.70;75.90
86305;DHT22;76964;49.316;7.118;2024-03-23T02:03:44;18.60;76.00
86305;DHT22;76964;49.316;7.118;2024-03-23T02:06:10;18.60;76.20
86305;DHT22;76964;49.316;7.118;2024-03-23T02:08:37;18.70;76.10
86305;DHT22;76964;49.316;7.118;2024-03-23T02:11:04;18.80;76.20
86305;DHT22;76964;49.316;7.118;2024-03-23T02:13:31;18.80;75.60
86305;DHT22;76964;49.316;7.118;2024-03-23T02:15:57;18.80;75.40
86305;DHT22;76964;49.316;7.118;2024-03-23T02:18:25;18.80;75.70
86305;DHT22;76964;49.316;7.118;2024-03-23T02:20:52;18.80;75.70
86305;DHT22;76964;49.316;7.118;2024-03-23T02:23:21;18.80;75.60
86305;DHT22;76964;49.316;7.118;2024-03-23T02:25:47;18.80;75.60
86305;DHT22;76964;49.316;7.118;2024-03-23T02:28:14;18.70;75.50
86305;DHT22;76964;49.316;7.118;2024-03-23T02:30:40;18.70;75.70
86305;DHT22;76964;49.316;7.118;2024-03-23T02:33:07;18.70;76.00
86305;DHT22;76964;49.316;7.118;2024-03-23T02:35:33;18.70;76.60
86305;DHT22;76964;49.316;7.118;2024-03-23T02:38:00;18.70;75.80
86305;DHT22;76964;49.316;7.118;2024-03-23T02:40:28;18.70;75.80
86305;DHT22;76964;49.316;7.118;2024-03-23T02:42:55;18.60;75.80
86305;DHT22;76964;49.316;7.118;2024-03-23T02:45:21;18.60;76.20
86305;DHT22;76964;49.316;7.118;2024-03-23T02:47:49;18.60;76.20
86305;DHT22;76964;49.316;7.118;2024-03-23T02:50:18;18.70;76.10
86305;DHT22;76964;49.316;7.118;2024-03-23T02:52:45;18.80;75.80
86305;DHT22;76964;49.316;7.118;2024-03-23T02:55:11;18.80;75.50
86305;DHT22;76964;49.316;7.118;2024-03-23T02:57:40;18.80;75.40
86305;DHT22;76964;49.316;7.118;2024-03-23T03:00:07;18.80;75.70
86305;DHT22;76964;49.316;7.118;2024-03-23T03:02:35;18.80;75.70
86305;DHT22;76964;49.316;7.118;2024-03-23T03:05:01;18.80;75.60
86305;DHT22;76964;49.316;7.118;2024-03-23T03:07:28;18.80;75.60
86305;DHT22;76964;49.316;7.118;2024-03-23T03:09:54;18.70;75.50
86305;DHT22;76964;49.316;7.118;2024-03-23T03:12:21;18.70;75.70
86305;DHT22;76964;49.316;7.118;2024-03-23T03:14:49;18.70;76.00
86305;DHT22;76964;49.316;7.118;2024-03-23T03:17:16;18.70;76.00
86305;DHT22;76964;49.316;7.118;2024-03-23T03:19:42;18.70;75.90
86305;DHT22;76964;49.316;7.118;2024-03-23T03:22:09;18.60;75.80
86305;DHT22;76964;49.316;7.118;2024-03-23T03:24:35;18.60;75.90
86305;DHT22;76964;49.316;7.118;2024-03-23T03:27:02;18.60;76.20
86305;DHT22;76964;49.316;7.118;2024-03-23T03:29:29;18.60;76.20
86305;DHT22;76964;49.316;7.118;2024-03-23T03:32:03;18.60;76.10
86305;DHT22;76964;49.316;7.118;2024-03-23T03:34:29;18.60;75.90
86305;DHT22;76964;49.316;7.118;2024-03-23T03:36:56;18.60;76.00
86305;DHT22;76964;49.316;7.118;2024-03-23T03:39:23;18.60;76.10
86305;DHT22;76964;49.316;7.118;2024-03-23T03:41:50;18.60;76.40
86305;DHT22;76964;49.316;7.118;2024-03-23T03:44:16;18.60;77.00
86305;DHT22;76964;49.316;7.118;2024-03-23T03:46:43;18.70;76.10
86305;DHT22;76964;49.316;7.118;2024-03-23T03:49:11;18.80;75.70
86305;DHT22;76964;49.316;7.118;2024-03-23T03:51:38;18.80;75.50
86305;DHT22;76964;49.316;7.118;2024-03-23T03:54:04;18.80;75.40
86305;DHT22;76964;49.316;7.118;2024-03-23T03:56:32;18.80;75.60
86305;DHT22;76964;49.316;7.118;2024-03-23T03:58:58;18.80;75.60
86305;DHT22;76964;49.316;7.118;2024-03-23T04:01:25;18.70;75.40
86305;DHT22;76964;49.316;7.118;2024-03-23T04:03:51;18.70;75.40
86305;DHT22;76964;49.316;7.118;2024-03-23T04:06:20;18.70;75.50
86305;DHT22;76964;49.316;7.118;2024-03-23T04:08:46;18.60;75.90
86305;DHT22;76964;49.316;7.118;2024-03-23T04:11:13;18.60;75.90
86305;DHT22;76964;49.316;7.118;2024-03-23T04:13:39;18.60;75.80
86305;DHT22;76964;49.316;7.118;2024-03-23T04:16:07;18.60;75.70
86305;DHT22;76964;49.316;7.118;2024-03-23T04:18:35;18.60;75.80
86305;DHT22;76964;49.316;7.118;2024-03-23T04:21:02;18.60;75.90
86305;DHT22;76964;49.316;7.118;2024-03-23T04:23:30;18.60;76.20
86305;DHT22;76964;49.316;7.118;2024-03-23T04:26:03;18.60;76.20
86305;DHT22;76964;49.316;7.118;2024-03-23T04:28:29;18.70;76.00
86305;DHT22;76964;49.316;7.118;2024-03-23T04:30:56;18.70;75.60
86305;DHT22;76964;49.316;7.118;2024-03-23T04:33:22;18.80;75.40
86305;DHT22;76964;49.316;7.118;2024-03-23T04:35:49;18.70;75.10
86305;DHT22;76964;49.316;7.118;2024-03-23T04:38:15;18.70;75.60
86305;DHT22;76964;49.316;7.118;2024-03-23T04:40:44;18.70;75.50
86305;DHT22;76964;49.316;7.118;2024-03-23T04:43:11;18.70;75.20
86305;DHT22;76964;49.316;7.118;2024-03-23T04:45:39;18.70;75.30
86305;DHT22;76964;49.316;7.118;2024-03-23T04:48:07;18.70;75.40
86305;DHT22;76964;49.316;7.118;2024-03-23T04:50:34;18.60;75.50
86305;DHT22;76964;49.316;7.118;2024-03-23T04:53:01;18.60;75.90
86305;DHT22;76964;49.316;7.118;2024-03-23T04:55:28;18.60;75.60
86305;DHT22;76964;49.316;7.118;2024-03-23T04:57:58;18.60;75.50
86305;DHT22;76964;49.316;7.118;2024-03-23T05:00:24;18.60;75.60
86305;DHT22;76964;49.316;7.118;2024-03-23T05:02:52;18.60;75.60
86305;DHT22;76964;49.316;7.118;2024-03-23T05:05:19;18.60;75.90
86305;DHT22;76964;49.316;7.118;2024-03-23T05:07:45;18.60;76.10
86305;DHT22;76964;49.316;7.118;2024-03-23T05:10:12;18.70;76.00
86305;DHT22;76964;49.316;7.118;2024-03-23T05:12:39;18.70;75.60
86305;DHT22;76964;49.316;7.118;2024-03-23T05:15:08;18.80;75.40
86305;DHT22;76964;49.316;7.118;2024-03-23T05:17:34;18.80;75.10
86305;DHT22;76964;49.316;7.118;2024-03-23T05:20:02;18.70;75.40
86305;DHT22;76964;49.316;7.118;2024-03-23T05:22:29;18.70;75.50
86305;DHT22;76964;49.316;7.118;2024-03-23T05:24:56;18.70;75.30
86305;DHT22;76964;49.316;7.118;2024-03-23T05:27:22;18.70;75.20
86305;DHT22;76964;49.316;7.118;2024-03-23T05:29:49;18.70;75.30
86305;DHT22;76964;49.316;7.118;2024-03-23T05:32:17;18.70;75.50
86305;DHT22;76964;49.316;7.118;2024-03-23T05:34:44;18.60;75.90
86305;DHT22;76964;49.316;7.118;2024-03-23T05:37:10;18.60;75.70
86305;DHT22;76964;49.316;7.118;2024-03-23T05:39:37;18.60;75.50
86305;DHT22;76964;49.316;7.118;2024-03-23T05:42:03;18.60;75.60
86305;DHT22;76964;49.316;7.118;2024-03-23T05:44:31;18.60;75.70
86305;DHT22;76964;49.316;7.118;2024-03-23T05:46:57;18.60;75.90
86305;DHT22;76964;49.316;7.118;2024-03-23T05:49:25;18.60;76.10
86305;DHT22;76964;49.316;7.118;2024-03-23T05:51:51;18.60;75.90
86305;DHT22;76964;49.316;7.118;2024-03-23T05:54:21;18.70;75.60
86305;DHT22;76964;49.316;7.118;2024-03-23T05:56:47;18.80;75.30
86305;DHT22;76964;49.316;7.118;2024-03-23T05:59:14;18.80;75.00
86305;DHT22;76964;49.316;7.118;2024-03-23T06:01:40;18.70;75.40
86305;DHT22;76964;49.316;7.118;2024-03-23T06:04:07;18.70;75.40
86305;DHT22;76964;49.316;7.118;2024-03-23T06:06:34;18.80;75.20
86305;DHT22;76964;49.316;7.118;2024-03-23T06:09:01;18.80;75.20
86305;DHT22;76964;49.316;7.118;2024-03-23T06:11:28;18.70;75.20
86305;DHT22;76964;49.316;7.118;2024-03-23T06:13:55;18.70;75.40
86305;DHT22;76964;49.316;7.118;2024-03-23T06:16:21;18.60;75.60
86305;DHT22;76964;49.316;7.118;2024-03-23T06:18:49;18.60;75.50
86305;DHT22;76964;49.316;7.118;2024-03-23T06:21:15;18.70;75.40
86305;DHT22;76964;49.316;7.118;2024-03-23T06:23:45;18.60;75.40
86305;DHT22;76964;49.316;7.118;2024-03-23T06:26:17;18.60;75.40
86305;DHT22;76964;49.316;7.118;2024-03-23T06:28:44;18.60;75.50
86305;DHT22;76964;49.316;7.118;2024-03-23T06:31:10;18.60;75.90
86305;DHT22;76964;49.316;7.118;2024-03-23T06:33:38;18.60;75.70
86305;DHT22;76964;49.316;7.118;2024-03-23T06:36:05;18.60;75.40
86305;DHT22;76964;49.316;7.118;2024-03-23T06:38:32;18.60;75.40
86305;DHT22;76964;49.316;7.118;2024-03-23T06:41:02;18.60;75.50
86305;DHT22;76964;49.316;7.118;2024-03-23T06:43:29;18.60;75.70
86305;DHT22;76964;49.316;7.118;2024-03-23T06:45:56;18.60;75.90
86305;DHT22;76964;49.316;7.118;2024-03-23T06:48:23;18.70;75.80
86305;DHT22;76964;49.316;7.118;2024-03-23T06:50:49;18.70;75.40
86305;DHT22;76964;49.316;7.118;2024-03-23T06:53:16;18.80;75.30
86305;DHT22;76964;49.316;7.118;2024-03-23T06:55:50;18.80;74.90
86305;DHT22;76964;49.316;7.118;2024-03-23T06:58:19;18.70;75.20
86305;DHT22;76964;49.316;7.118;2024-03-23T07:00:45;18.80;75.40
86305;DHT22;76964;49.316;7.118;2024-03-23T07:03:12;18.80;75.10
86305;DHT22;76964;49.316;7.118;2024-03-23T07:05:38;18.70;75.10
86305;DHT22;76964;49.316;7.118;2024-03-23T07:08:06;18.70;75.10
86305;DHT22;76964;49.316;7.118;2024-03-23T07:10:32;18.60;75.20
86305;DHT22;76964;49.316;7.118;2024-03-23T07:12:59;18.60;75.70
86305;DHT22;76964;49.316;7.118;2024-03-23T07:15:26;18.60;75.60
86305;DHT22;76964;49.316;7.118;2024-03-23T07:17:53;18.60;75.40
86305;DHT22;76964;49.316;7.118;2024-03-23T07:20:19;18.60;75.50
86305;DHT22;76964;49.316;7.118;2024-03-23T07:22:47;18.60;75.40
86305;DHT22;76964;49.316;7.118;2024-03-23T07:25:13;18.50;75.70
86305;DHT22;76964;49.316;7.118;2024-03-23T07:27:40;18.60;75.90
86305;DHT22;76964;49.316;7.118;2024-03-23T07:30:07;18.60;75.60
86305;DHT22;76964;49.316;7.118;2024-03-23T07:32:36;18.60;75.50
86305;DHT22;76964;49.316;7.118;2024-03-23T07:35:02;18.60;75.60
86305;DHT22;76964;49.316;7.118;2024-03-23T07:37:29;18.50;75.60
86305;DHT22;76964;49.316;7.118;2024-03-23T07:39:56;18.50;76.70
86305;DHT22;76964;49.316;7.118;2024-03-23T07:42:23;18.60;76.00
86305;DHT22;76964;49.316;7.118;2024-03-23T07:44:49;18.70;75.70
86305;DHT22;76964;49.316;7.118;2024-03-23T07:47:16;18.80;75.40
86305;DHT22;76964;49.316;7.118;2024-03-23T07:49:44;18.80;75.10
86305;DHT22;76964;49.316;7.118;2024-03-23T07:52:11;18.80;74.90
86305;DHT22;76964;49.316;7.118;2024-03-23T07:54:37;18.80;75.10
86305;DHT22;76964;49.316;7.118;2024-03-23T07:57:04;18.80;75.20
86305;DHT22;76964;49.316;7.118;2024-03-23T07:59:32;18.80;75.10
86305;DHT22;76964;49.316;7.118;2024-03-23T08:01:59;18.80;75.80
86305;DHT22;76964;49.316;7.118;2024-03-23T08:04:27;18.70;75.10
86305;DHT22;76964;49.316;7.118;2024-03-23T08:06:55;18.70;75.20
86305;DHT22;76964;49.316;7.118;2024-03-23T08:09:22;18.60;75.50
86305;DHT22;76964;49.316;7.118;2024-03-23T08:11:49;18.60;75.50
86305;DHT22;76964;49.316;7.118;2024-03-23T08:14:15;18.60;75.40
86305;DHT22;76964;49.316;7.118;2024-03-23T08:16:42;18.60;75.30
86305;DHT22;76964;49.316;7.118;2024-03-23T08:19:14;18.60;75.40
86305;DHT22;76964;49.316;7.118;2024-03-23T08:21:41;18.60;75.60
86305;DHT22;76964;49.316;7.118;2024-03-23T08:24:09;18.50;75.80
86305;DHT22;76964;49.316;7.118;2024-03-23T08:26:36;18.50;75.60
86305;DHT22;76964;49.316;7.118;2024-03-23T08:29:03;18.60;75.60
86305;DHT22;76964;49.316;7.118;2024-03-23T08:31:30;18.60;75.60
86305;DHT22;76964;49.316;7.118;2024-03-23T08:33:57;18.50;75.60
86305;DHT22;76964;49.316;7.118;2024-03-23T08:36:24;18.50;75.80
86305;DHT22;76964;49.316;7.118;2024-03-23T08:38:50;18.50;75.90
86305;DHT22;76964;49.316;7.118;2024-03-23T08:41:21;18.60;75.80
86305;DHT22;76964;49.316;7.118;2024-03-23T08:43:47;18.70;75.50
86305;DHT22;76964;49.316;7.118;2024-03-23T08:46:15;18.80;75.30
86305;DHT22;76964;49.316;7.118;2024-03-23T08:48:42;18.80;75.00
86305;DHT22;76964;49.316;7.118;2024-03-23T08:51:12;18.70;75.10
86305;DHT22;76964;49.316;7.118;2024-03-23T08:53:38;18.70;75.20
86305;DHT22;76964;49.316;7.118;2024-03-23T08:56:07;18.70;75.10
86305;DHT22;76964;49.316;7.118;2024-03-23T08:58:35;18.70;75.00
86305;DHT22;76964;49.316;7.118;2024-03-23T09:01:04;18.70;75.10
86305;DHT22;76964;49.316;7.118;2024-03-23T09:03:31;18.60;75.10
86305;DHT22;76964;49.316;7.118;2024-03-23T09:05:58;18.60;75.60
86305;DHT22;76964;49.316;7.118;2024-03-23T09:08:25;18.60;75.60
86305;DHT22;76964;49.316;7.118;2024-03-23T09:10:52;18.60;75.40
86305;DHT22;76964;49.316;7.118;2024-03-23T09:13:18;18.60;75.40
86305;DHT22;76964;49.316;7.118;2024-03-23T09:15:48;18.60;75.50
86305;DHT22;76964;49.316;7.118;2024-03-23T09:18:15;18.50;75.50
86305;DHT22;76964;49.316;7.118;2024-03-23T09:20:42;18.50;75.80
86305;DHT22;76964;49.316;7.118;2024-03-23T09:23:09;18.50;75.60
86305;DHT22;76964;49.316;7.118;2024-03-23T09:25:36;18.50;75.50
86305;DHT22;76964;49.316;7.118;2024-03-23T09:28:04;18.50;75.40
86305;DHT22;76964;49.316;7.118;2024-03-23T09:30:32;18.50;75.60
86305;DHT22;76964;49.316;7.118;2024-03-23T09:32:59;18.50;75.90
86305;DHT22;76964;49.316;7.118;2024-03-23T09:35:27;18.50;76.00
86305;DHT22;76964;49.316;7.118;2024-03-23T09:37:53;18.60;75.90
86305;DHT22;76964;49.316;7.118;2024-03-23T09:40:20;18.70;75.50
86305;DHT22;76964;49.316;7.118;2024-03-23T09:42:50;18.70;75.20
86305;DHT22;76964;49.316;7.118;2024-03-23T09:45:19;18.70;74.90
86305;DHT22;76964;49.316;7.118;2024-03-23T09:47:46;18.70;75.30
86305;DHT22;76964;49.316;7.118;2024-03-23T09:50:15;18.70;75.40
86305;DHT22;76964;49.316;7.118;2024-03-23T09:52:41;18.70;75.20
86305;DHT22;76964;49.316;7.118;2024-03-23T09:55:09;18.70;75.20
86305;DHT22;76964;49.316;7.118;2024-03-23T09:57:35;18.60;75.20
86305;DHT22;76964;49.316;7.118;2024-03-23T10:00:03;18.60;75.40
86305;DHT22;76964;49.316;7.118;2024-03-23T10:02:33;18.60;75.80
86305;DHT22;76964;49.316;7.118;2024-03-23T10:05:01;18.60;75.60
86305;DHT22;76964;49.316;7.118;2024-03-23T10:07:28;18.60;75.50
86305;DHT22;76964;49.316;7.118;2024-03-23T10:09:56;18.60;75.50
86305;DHT22;76964;49.316;7.118;2024-03-23T10:12:23;18.50;75.50
86305;DHT22;76964;49.316;7.118;2024-03-23T10:14:51;18.50;75.80
86305;DHT22;76964;49.316;7.118;2024-03-23T10:17:18;18.50;75.80
86305;DHT22;76964;49.316;7.118;2024-03-23T10:19:46;18.50;75.50
86305;DHT22;76964;49.316;7.118;2024-03-23T10:22:14;18.50;75.40
86305;DHT22;76964;49.316;7.118;2024-03-23T10:24:43;18.50;75.50
86305;DHT22;76964;49.316;7.118;2024-03-23T10:27:09;18.50;75.70
86305;DHT22;76964;49.316;7.118;2024-03-23T10:29:36;18.50;76.00
86305;DHT22;76964;49.316;7.118;2024-03-23T10:32:09;18.50;75.90
86305;DHT22;76964;49.316;7.118;2024-03-23T10:34:36;18.60;75.60
86305;DHT22;76964;49.316;7.118;2024-03-23T10:37:03;18.70;75.40
86305;DHT22;76964;49.316;7.118;2024-03-23T10:39:33;18.70;75.00
86305;DHT22;76964;49.316;7.118;2024-03-23T10:42:02;18.70;75.00
86305;DHT22;76964;49.316;7.118;2024-03-23T10:44:30;18.70;75.40
86305;DHT22;76964;49.316;7.118;2024-03-23T10:46:58;18.70;75.00
86305;DHT22;76964;49.316;7.118;2024-03-23T10:49:28;18.70;74.80
86305;DHT22;76964;49.316;7.118;2024-03-23T10:51:59;18.60;74.80
86305;DHT22;76964;49.316;7.118;2024-03-23T10:54:27;18.60;75.00
86305;DHT22;76964;49.316;7.118;2024-03-23T10:56:56;18.60;75.40
86305;DHT22;76964;49.316;7.118;2024-03-23T10:59:26;18.60;75.50
86305;DHT22;76964;49.316;7.118;2024-03-23T11:01:56;18.60;75.20
86305;DHT22;76964;49.316;7.118;2024-03-23T11:04:30;18.50;75.30
86305;DHT22;76964;49.316;7.118;2024-03-23T11:06:57;18.50;75.40
86305;DHT22;76964;49.316;7.118;2024-03-23T11:09:40;18.50;75.50
86305;DHT22;76964;49.316;7.118;2024-03-23T11:12:29;18.50;75.90
86305;DHT22;76964;49.316;7.118;2024-03-23T11:15:01;18.60;75.90
86305;DHT22;76964;49.316;7.118;2024-03-23T11:17:28;18.60;75.50
86305;DHT22;76964;49.316;7.118;2024-03-23T11:19:57;18.70;75.30
86305;DHT22;76964;49.316;7.118;2024-03-23T11:22:39;18.70;75.10
86305;DHT22;76964;49.316;7.118;2024-03-23T11:25:13;18.70;75.30
86305;DHT22;76964;49.316;7.118;2024-03-23T11:27:39;18.70;75.40
86305;DHT22;76964;49.316;7.118;2024-03-23T11:30:13;18.70;75.10
86305;DHT22;76964;49.316;7.118;2024-03-23T11:32:40;18.70;75.20
86305;DHT22;76964;49.316;7.118;2024-03-23T11:35:07;18.60;75.10
86305;DHT22;76964;49.316;7.118;2024-03-23T11:37:36;18.60;75.20
86305;DHT22;76964;49.316;7.118;2024-03-23T11:40:20;18.60;75.70
86305;DHT22;76964;49.316;7.118;2024-03-23T11:42:46;18.60;75.40
86305;DHT22;76964;49.316;7.118;2024-03-23T11:45:15;18.60;75.30
86305;DHT22;76964;49.316;7.118;2024-03-23T11:47:44;18.50;75.30
86305;DHT22;76964;49.316;7.118;2024-03-23T11:50:19;18.50;75.30
86305;DHT22;76964;49.316;7.118;2024-03-23T11:52:45;18.50;75.70
86305;DHT22;76964;49.316;7.118;2024-03-23T11:55:12;18.50;75.80
86305;DHT22;76964;49.316;7.118;2024-03-23T11:57:38;18.60;75.70
86305;DHT22;76964;49.316;7.118;2024-03-23T12:00:23;18.60;75.30
86305;DHT22;76964;49.316;7.118;2024-03-23T12:02:49;18.70;74.90
86305;DHT22;76964;49.316;7.118;2024-03-23T12:05:17;18.60;75.00
86305;DHT22;76964;49.316;7.118;2024-03-23T12:07:43;18.60;75.40
86305;DHT22;76964;49.316;7.118;2024-03-23T12:10:10;18.60;76.00
86305;DHT22;76964;49.316;7.118;2024-03-23T12:12:36;18.60;75.10
86305;DHT22;76964;49.316;7.118;2024-03-23T12:15:05;18.60;75.20
86305;DHT22;76964;49.316;7.118;2024-03-23T12:17:33;18.60;75.40
86305;DHT22;76964;49.316;7.118;2024-03-23T12:20:01;18.50;75.40
86305;DHT22;76964;49.316;7.118;2024-03-23T12:22:28;18.50;75.70
86305;DHT22;76964;49.316;7.118;2024-03-23T12:24:56;18.50;75.40
86305;DHT22;76964;49.316;7.118;2024-03-23T12:27:23;18.50;75.40
86305;DHT22;76964;49.316;7.118;2024-03-23T12:29:50;18.50;75.50
86305;DHT22;76964;49.316;7.118;2024-03-23T12:32:17;18.50;75.60
86305;DHT22;76964;49.316;7.118;2024-03-23T12:34:46;18.50;75.80
86305;DHT22;76964;49.316;7.118;2024-03-23T12:37:13;18.50;75.90
86305;DHT22;76964;49.316;7.118;2024-03-23T12:39:40;18.60;75.80
86305;DHT22;76964;49.316;7.118;2024-03-23T12:42:06;18.60;75.30
86305;DHT22;76964;49.316;7.118;2024-03-23T12:44:34;18.70;75.10
86305;DHT22;76964;49.316;7.118;2024-03-23T12:47:00;18.70;75.70
86305;DHT22;76964;49.316;7.118;2024-03-23T12:49:27;18.60;75.30
86305;DHT22;76964;49.316;7.118;2024-03-23T12:51:56;18.60;75.30
86305;DHT22;76964;49.316;7.118;2024-03-23T12:54:25;18.60;75.10
86305;DHT22;76964;49.316;7.118;2024-03-23T12:56:51;18.60;75.30
86305;DHT22;76964;49.316;7.118;2024-03-23T12:59:18;18.60;75.40
86305;DHT22;76964;49.316;7.118;2024-03-23T13:01:44;18.50;75.50
86305;DHT22;76964;49.316;7.118;2024-03-23T13:04:11;18.50;75.80
86305;DHT22;76964;49.316;7.118;2024-03-23T13:06:37;18.50;75.60
86305;DHT22;76964;49.316;7.118;2024-03-23T13:09:06;18.50;75.50
86305;DHT22;76964;49.316;7.118;2024-03-23T13:11:32;18.50;75.60
86305;DHT22;76964;49.316;7.118;2024-03-23T13:13:59;18.50;75.60
86305;DHT22;76964;49.316;7.118;2024-03-23T13:16:25;18.50;75.70
86305;DHT22;76964;49.316;7.118;2024-03-23T13:18:52;18.50;75.90
86305;DHT22;76964;49.316;7.118;2024-03-23T13:21:18;18.50;75.80
86305;DHT22;76964;49.316;7.118;2024-03-23T13:23:47;18.60;75.50
86305;DHT22;76964;49.316;7.118;2024-03-23T13:26:15;18.60;75.30
86305;DHT22;76964;49.316;7.118;2024-03-23T13:28:42;18.60;75.40
86305;DHT22;76964;49.316;7.118;2024-03-23T13:31:08;18.60;75.60
86305;DHT22;76964;49.316;7.118;2024-03-23T13:33:36;18.60;75.60
86305;DHT22;76964;49.316;7.118;2024-03-23T13:36:02;18.60;75.60
86305;DHT22;76964;49.316;7.118;2024-03-23T13:38:29;18.60;75.70
86305;DHT22;76964;49.316;7.118;2024-03-23T13:40:56;18.60;75.80
86305;DHT22;76964;49.316;7.118;2024-03-23T13:43:26;18.50;75.80
86305;DHT22;76964;49.316;7.118;2024-03-23T13:45:54;18.50;75.90
86305;DHT22;76964;49.316;7.118;2024-03-23T13:48:24;18.50;75.90
86305;DHT22;76964;49.316;7.118;2024-03-23T13:50:57;18.50;76.00
86305;DHT22;76964;49.316;7.118;2024-03-23T13:53:24;18.50;76.00
86305;DHT22;76964;49.316;7.118;2024-03-23T13:55:50;18.50;76.00
86305;DHT22;76964;49.316;7.118;2024-03-23T13:58:17;18.50;76.00
86305;DHT22;76964;49.316;7.118;2024-03-23T14:00:45;18.50;76.70
86305;DHT22;76964;49.316;7.118;2024-03-23T14:03:13;18.50;75.90
86305;DHT22;76964;49.316;7.118;2024-03-23T14:05:40;18.60;75.60
86305;DHT22;76964;49.316;7.118;2024-03-23T14:08:08;18.70;75.30
86305;DHT22;76964;49.316;7.118;2024-03-23T14:10:34;18.70;74.90
86305;DHT22;76964;49.316;7.118;2024-03-23T14:13:02;18.70;75.10
86305;DHT22;76964;49.316;7.118;2024-03-23T14:15:29;18.70;75.40
86305;DHT22;76964;49.316;7.118;2024-03-23T14:17:58;18.60;75.10
86305;DHT22;76964;49.316;7.118;2024-03-23T14:20:24;18.70;75.10
86305;DHT22;76964;49.316;7.118;2024-03-23T14:22:52;18.60;75.20
86305;DHT22;76964;49.316;7.118;2024-03-23T14:25:18;18.60;75.30
86305;DHT22;76964;49.316;7.118;2024-03-23T14:27:46;18.50;75.40
86305;DHT22;76964;49.316;7.118;2024-03-23T14:30:13;18.50;75.50
86305;DHT22;76964;49.316;7.118;2024-03-23T14:32:40;18.50;75.20
86305;DHT22;76964;49.316;7.118;2024-03-23T14:35:08;18.50;75.30
86305;DHT22;76964;49.316;7.118;2024-03-23T14:37:36;18.50;75.40
86305;DHT22;76964;49.316;7.118;2024-03-23T14:40:04;18.50;75.50
86305;DHT22;76964;49.316;7.118;2024-03-23T14:42:32;18.50;75.80
86305;DHT22;76964;49.316;7.118;2024-03-23T14:44:58;18.50;75.50
86305;DHT22;76964;49.316;7.118;2024-03-23T14:47:25;18.50;75.50
86305;DHT22;76964;49.316;7.118;2024-03-23T14:49:51;18.50;75.50
86305;DHT22;76964;49.316;7.118;2024-03-23T14:52:20;18.50;75.60
86305;DHT22;76964;49.316;7.118;2024-03-23T14:54:46;18.50;75.70
86305;DHT22;76964;49.316;7.118;2024-03-23T14:57:13;18.50;75.90
86305;DHT22;76964;49.316;7.118;2024-03-23T14:59:39;18.50;75.80
86305;DHT22;76964;49.316;7.118;2024-03-23T15:02:07;18.60;75.60
86305;DHT22;76964;49.316;7.118;2024-03-23T15:04:34;18.70;75.20
86305;DHT22;76964;49.316;7.118;2024-03-23T15:07:01;18.70;74.80
86305;DHT22;76964;49.316;7.118;2024-03-23T15:09:29;18.70;74.90
86305;DHT22;76964;49.316;7.118;2024-03-23T15:11:58;18.70;75.20
86305;DHT22;76964;49.316;7.118;2024-03-23T15:14:24;18.70;75.30
86305;DHT22;76964;49.316;7.118;2024-03-23T15:16:51;18.60;75.00
86305;DHT22;76964;49.316;7.118;2024-03-23T15:19:18;18.60;75.10
86305;DHT22;76964;49.316;7.118;2024-03-23T15:21:45;18.60;75.20
86305;DHT22;76964;49.316;7.118;2024-03-23T15:24:11;18.50;75.30
86305;DHT22;76964;49.316;7.118;2024-03-23T15:26:40;18.50;75.60
86305;DHT22;76964;49.316;7.118;2024-03-23T15:29:06;18.50;75.50
86305;DHT22;76964;49.316;7.118;2024-03-23T15:31:42;18.50;75.50
86305;DHT22;76964;49.316;7.118;2024-03-23T15:34:08;18.50;75.60
86305;DHT22;76964;49.316;7.118;2024-03-23T15:36:36;18.50;75.60
86305;DHT22;76964;49.316;7.118;2024-03-23T15:39:04;18.40;75.70
86305;DHT22;76964;49.316;7.118;2024-03-23T15:41:31;18.50;75.80
86305;DHT22;76964;49.316;7.118;2024-03-23T15:44:00;18.50;76.30
86305;DHT22;76964;49.316;7.118;2024-03-23T15:46:27;18.60;75.30
86305;DHT22;76964;49.316;7.118;2024-03-23T15:48:53;18.50;75.10
86305;DHT22;76964;49.316;7.118;2024-03-23T15:51:21;18.50;75.20
86305;DHT22;76964;49.316;7.118;2024-03-23T15:53:47;18.50;75.40
86305;DHT22;76964;49.316;7.118;2024-03-23T15:56:18;18.50;75.40
86305;DHT22;76964;49.316;7.118;2024-03-23T15:58:44;18.50;75.30
86305;DHT22;76964;49.316;7.118;2024-03-23T16:01:13;18.50;75.40
86305;DHT22;76964;49.316;7.118;2024-03-23T16:03:39;18.50;75.40
86305;DHT22;76964;49.316;7.118;2024-03-23T16:06:07;18.40;75.40
86305;DHT22;76964;49.316;7.118;2024-03-23T16:08:34;18.40;75.70
86305;DHT22;76964;49.316;7.118;2024-03-23T16:11:02;18.50;75.70
86305;DHT22;76964;49.316;7.118;2024-03-23T16:13:28;18.50;75.40
86305;DHT22;76964;49.316;7.118;2024-03-23T16:15:56;18.60;75.10
86305;DHT22;76964;49.316;7.118;2024-03-23T16:18:24;18.50;75.10
86305;DHT22;76964;49.316;7.118;2024-03-23T16:20:55;18.50;75.30
86305;DHT22;76964;49.316;7.118;2024-03-23T16:23:21;18.50;75.40
86305;DHT22;76964;49.316;7.118;2024-03-23T16:25:49;18.50;75.20